createdAt,value
2023-05-19T00:02:05.992Z,12.60
2023-05-19T00:04:35.496Z,12.57
2023-05-19T00:07:04.153Z,12.57
2023-05-19T00:09:32.559Z,12.54
2023-05-19T00:12:01.416Z,12.53
2023-05-19T00:14:29.808Z,12.53
2023-05-19T00:16:58.490Z,12.53
2023-05-19T00:19:32.209Z,12.52
2023-05-19T00:22:00.466Z,12.48
2023-05-19T00:24:28.973Z,12.52
2023-05-19T00:26:57.134Z,12.51
2023-05-19T00:29:25.843Z,12.48
2023-05-19T00:31:54.415Z,12.48
2023-05-19T00:34:22.533Z,12.47
2023-05-19T00:36:51.168Z,12.47
2023-05-19T00:39:19.518Z,12.46
2023-05-19T00:41:47.656Z,12.45
2023-05-19T00:44:15.978Z,12.44
2023-05-19T00:46:44.399Z,12.44
2023-05-19T00:49:12.820Z,12.40
2023-05-19T00:51:42.216Z,12.36
2023-05-19T00:54:10.794Z,12.39
2023-05-19T00:56:39.397Z,12.35
2023-05-19T00:59:08.113Z,12.37
2023-05-19T01:01:37.226Z,12.38
2023-05-19T01:04:09.930Z,12.37
2023-05-19T01:06:39.091Z,12.34
2023-05-19T01:09:07.709Z,12.35
2023-05-19T01:11:36.011Z,12.36
2023-05-19T01:14:04.643Z,12.33
2023-05-19T01:17:11.067Z,12.45
2023-05-19T01:19:43.551Z,12.43
2023-05-19T01:22:27.070Z,12.38
2023-05-19T01:25:11.112Z,12.42
2023-05-19T01:27:47.181Z,12.36
2023-05-19T01:30:16.883Z,12.33
2023-05-19T01:32:48.094Z,12.37
2023-05-19T01:35:16.945Z,12.39
2023-05-19T01:37:46.867Z,12.33
2023-05-19T01:40:15.613Z,12.34
2023-05-19T01:42:45.558Z,12.34
2023-05-19T01:45:13.893Z,12.34
2023-05-19T01:47:44.592Z,12.31
2023-05-19T01:50:13.553Z,12.27
2023-05-19T01:52:41.810Z,12.26
2023-05-19T01:55:10.312Z,12.22
2023-05-19T01:58:10.841Z,12.22
2023-05-19T02:01:03.216Z,12.20
2023-05-19T02:03:31.758Z,12.20
2023-05-19T02:06:22.845Z,12.13
2023-05-19T02:09:13.287Z,12.09
2023-05-19T02:12:20.083Z,12.09
2023-05-19T02:15:02.567Z,11.99
2023-05-19T02:17:33.273Z,11.95
2023-05-19T02:20:02.492Z,11.92
2023-05-19T02:22:31.569Z,11.93
2023-05-19T02:24:59.786Z,11.94
2023-05-19T02:27:28.280Z,11.96
2023-05-19T02:29:56.794Z,11.98
2023-05-19T02:32:24.980Z,11.96
2023-05-19T02:34:53.358Z,11.88
2023-05-19T02:37:23.878Z,11.85
2023-05-19T02:39:52.058Z,11.85
2023-05-19T02:42:20.797Z,11.81
2023-05-19T02:44:49.906Z,11.83
2023-05-19T02:47:18.901Z,11.82
2023-05-19T02:49:47.216Z,11.76
2023-05-19T02:52:16.682Z,11.77
2023-05-19T02:54:44.939Z,11.82
2023-05-19T02:57:13.313Z,11.81
2023-05-19T02:59:43.127Z,11.83
2023-05-19T03:02:11.525Z,11.84
2023-05-19T03:04:42.392Z,11.87
2023-05-19T03:07:10.865Z,11.91
2023-05-19T03:09:39.249Z,11.91
2023-05-19T03:12:08.092Z,11.91
2023-05-19T03:14:39.300Z,11.91
2023-05-19T03:17:08.249Z,11.89
2023-05-19T03:19:36.846Z,11.88
2023-05-19T03:22:05.226Z,11.85
2023-05-19T03:24:34.429Z,11.82
2023-05-19T03:27:05.920Z,11.82
2023-05-19T03:29:34.494Z,11.80
2023-05-19T03:32:03.815Z,11.79
2023-05-19T03:34:32.674Z,11.80
2023-05-19T03:37:00.936Z,11.81
2023-05-19T03:39:29.269Z,11.81
2023-05-19T03:41:57.465Z,11.81
2023-05-19T03:44:25.640Z,11.83
2023-05-19T03:46:54.078Z,11.78
2023-05-19T03:49:23.439Z,11.82
2023-05-19T03:52:09.887Z,11.87
2023-05-19T03:54:39.512Z,11.93
2023-05-19T03:57:07.906Z,11.94
2023-05-19T03:59:37.252Z,11.99
2023-05-19T04:02:05.745Z,12.02
2023-05-19T04:04:34.269Z,12.07
2023-05-19T04:07:02.492Z,12.11
2023-05-19T04:09:32.450Z,12.16
2023-05-19T04:12:05.886Z,12.20
2023-05-19T04:14:34.002Z,12.21
2023-05-19T04:17:02.311Z,12.32
2023-05-19T04:19:30.608Z,12.39
2023-05-19T04:21:58.891Z,12.42
2023-05-19T04:24:27.153Z,12.51
2023-05-19T04:26:56.204Z,12.40
2023-05-19T04:29:24.365Z,12.37
2023-05-19T04:31:52.829Z,12.45
2023-05-19T04:34:21.171Z,12.36
2023-05-19T04:36:51.678Z,12.50
2023-05-19T04:39:22.388Z,12.51
2023-05-19T04:41:50.809Z,12.57
2023-05-19T04:44:19.260Z,12.57
2023-05-19T04:46:48.234Z,12.71
2023-05-19T04:49:16.557Z,12.88
2023-05-19T04:51:46.047Z,12.95
2023-05-19T04:54:15.194Z,12.98
2023-05-19T04:56:43.833Z,13.00
2023-05-19T04:59:12.687Z,12.97
2023-05-19T05:01:43.203Z,13.09
2023-05-19T05:04:12.899Z,13.11
2023-05-19T05:06:47.743Z,13.17
2023-05-19T05:09:16.522Z,13.32
2023-05-19T05:11:45.491Z,13.25
2023-05-19T05:14:13.933Z,13.28
2023-05-19T05:16:43.609Z,13.20
2023-05-19T05:19:13.168Z,13.28
2023-05-19T05:21:41.839Z,13.40
2023-05-19T05:24:11.798Z,13.50
2023-05-19T05:26:41.429Z,13.58
2023-05-19T05:29:10.324Z,13.68
2023-05-19T05:31:39.076Z,13.81
2023-05-19T05:34:07.938Z,13.72
2023-05-19T05:36:35.986Z,13.79
2023-05-19T05:39:05.680Z,13.91
2023-05-19T05:41:36.964Z,14.01
2023-05-19T05:44:05.541Z,13.96
2023-05-19T05:46:34.586Z,14.03
2023-05-19T05:49:03.398Z,14.22
2023-05-19T05:51:33.067Z,14.21
2023-05-19T05:54:02.939Z,14.23
2023-05-19T05:56:33.903Z,14.26
2023-05-19T05:59:02.895Z,14.25
2023-05-19T06:01:31.596Z,14.25
2023-05-19T06:04:01.357Z,14.55
2023-05-19T06:06:31.570Z,14.53
2023-05-19T06:09:00.489Z,14.38
2023-05-19T06:11:29.299Z,14.57
2023-05-19T06:13:58.008Z,14.66
2023-05-19T06:16:30.949Z,14.74
2023-05-19T06:18:59.305Z,14.82
2023-05-19T06:21:27.531Z,14.85
2023-05-19T06:23:55.912Z,14.96
2023-05-19T06:26:24.188Z,15.11
2023-05-19T06:28:52.285Z,15.22
2023-05-19T06:31:22.258Z,15.45
2023-05-19T06:33:51.164Z,15.41
2023-05-19T06:36:19.546Z,15.68
2023-05-19T06:38:48.308Z,15.72
2023-05-19T06:41:17.223Z,15.67
2023-05-19T06:43:48.341Z,15.85
2023-05-19T06:46:17.891Z,16.07
2023-05-19T06:48:46.261Z,16.07
2023-05-19T06:51:16.781Z,16.07
2023-05-19T06:53:45.562Z,16.28
2023-05-19T06:56:15.110Z,16.46
2023-05-19T06:58:43.733Z,16.47
2023-05-19T07:01:12.594Z,16.73
2023-05-19T07:03:41.083Z,16.85
2023-05-19T07:06:10.144Z,17.09
2023-05-19T07:08:39.200Z,17.03
2023-05-19T07:11:07.776Z,17.10
2023-05-19T07:13:36.097Z,16.97
2023-05-19T07:16:05.710Z,16.75
2023-05-19T07:18:34.382Z,16.87
2023-05-19T07:21:02.424Z,16.87
2023-05-19T07:23:31.097Z,16.70
2023-05-19T07:25:59.394Z,16.42
2023-05-19T07:28:27.458Z,16.35
2023-05-19T07:30:56.286Z,16.28
2023-05-19T07:33:24.592Z,16.34
2023-05-19T07:35:53.562Z,16.21
2023-05-19T07:38:21.957Z,16.33
2023-05-19T07:40:50.130Z,16.46
2023-05-19T07:43:18.308Z,16.64
2023-05-19T07:45:46.834Z,16.77
2023-05-19T07:48:15.224Z,16.93
2023-05-19T07:50:43.540Z,17.01
2023-05-19T07:53:11.991Z,17.14
2023-05-19T07:55:40.094Z,17.17
2023-05-19T07:58:08.252Z,17.39
2023-05-19T08:00:36.895Z,17.37
2023-05-19T08:03:05.572Z,17.36
2023-05-19T08:05:35.084Z,17.48
2023-05-19T08:08:03.614Z,17.58
2023-05-19T08:10:32.533Z,17.59
2023-05-19T08:13:00.757Z,17.66
2023-05-19T08:15:29.037Z,17.96
2023-05-19T08:17:57.498Z,18.13
2023-05-19T08:20:25.823Z,18.17
2023-05-19T08:22:53.978Z,18.35
2023-05-19T08:25:22.508Z,18.51
2023-05-19T08:27:50.614Z,18.71
2023-05-19T08:30:18.919Z,18.66
2023-05-19T08:32:48.613Z,19.01
2023-05-19T08:35:16.814Z,19.23
2023-05-19T08:37:45.000Z,19.73
2023-05-19T08:40:18.387Z,19.73
2023-05-19T08:42:46.963Z,19.87
2023-05-19T08:45:15.801Z,19.78
2023-05-19T08:47:46.900Z,19.51
2023-05-19T08:50:27.606Z,18.92
2023-05-19T08:53:01.698Z,18.88
2023-05-19T08:55:55.421Z,18.29
2023-05-19T08:58:23.630Z,18.24
2023-05-19T09:00:53.704Z,18.43
2023-05-19T09:03:23.884Z,18.21
2023-05-19T09:05:52.902Z,18.31
2023-05-19T09:08:21.028Z,18.32
2023-05-19T09:10:49.549Z,18.29
2023-05-19T09:13:18.059Z,18.29
2023-05-19T09:15:47.027Z,18.19
2023-05-19T09:18:15.473Z,18.41
2023-05-19T09:20:45.024Z,18.89
2023-05-19T09:23:15.120Z,19.77
2023-05-19T09:25:53.782Z,20.37
2023-05-19T09:28:28.161Z,21.16
2023-05-19T09:31:03.840Z,21.44
2023-05-19T09:33:37.821Z,21.58
2023-05-19T09:36:08.515Z,21.82
2023-05-19T09:38:38.474Z,21.31
2023-05-19T09:41:08.925Z,21.54
2023-05-19T09:43:37.013Z,21.68
2023-05-19T09:46:06.386Z,21.94
2023-05-19T09:48:36.563Z,21.98
2023-05-19T09:51:08.077Z,21.42
2023-05-19T09:53:36.744Z,21.20
2023-05-19T09:56:05.238Z,21.65
2023-05-19T09:58:37.215Z,21.64
2023-05-19T10:01:06.461Z,21.29
2023-05-19T10:03:35.342Z,20.94
2023-05-19T10:06:09.269Z,21.13
2023-05-19T10:08:39.706Z,21.20
2023-05-19T10:11:10.296Z,21.61
2023-05-19T10:13:39.952Z,21.73
2023-05-19T10:16:09.583Z,21.93
2023-05-19T10:18:39.954Z,21.99
2023-05-19T10:21:09.630Z,21.64
2023-05-19T10:23:38.606Z,21.66
2023-05-19T10:26:07.919Z,21.54
2023-05-19T10:28:39.506Z,21.61
2023-05-19T10:31:11.570Z,21.24
2023-05-19T10:33:48.611Z,20.98
2023-05-19T10:36:39.554Z,20.53
2023-05-19T10:39:16.700Z,20.36
2023-05-19T10:42:02.073Z,20.19
2023-05-19T10:44:52.364Z,20.30
2023-05-19T10:47:27.364Z,20.13
2023-05-19T10:49:56.230Z,20.01
2023-05-19T10:52:29.846Z,19.86
2023-05-19T10:54:58.491Z,20.10
2023-05-19T10:57:28.214Z,20.67
2023-05-19T10:59:57.424Z,20.72
2023-05-19T11:02:42.080Z,20.89
2023-05-19T11:05:20.477Z,20.90
2023-05-19T11:07:57.060Z,21.04
2023-05-19T11:10:25.467Z,21.09
2023-05-19T11:12:58.241Z,21.23
2023-05-19T11:15:30.473Z,21.22
2023-05-19T11:18:01.883Z,20.89
2023-05-19T11:20:35.145Z,20.76
2023-05-19T11:23:08.927Z,20.69
2023-05-19T11:25:47.622Z,20.81
2023-05-19T11:28:20.840Z,20.88
2023-05-19T11:30:52.612Z,20.86
2023-05-19T11:33:21.749Z,20.87
2023-05-19T11:35:51.253Z,20.96
2023-05-19T11:38:19.900Z,20.92
2023-05-19T11:40:49.927Z,20.63
2023-05-19T11:43:18.639Z,20.64
2023-05-19T11:45:47.144Z,20.76
2023-05-19T11:48:16.051Z,20.81
2023-05-19T11:50:44.378Z,20.82
2023-05-19T11:53:16.837Z,20.87
2023-05-19T11:55:46.952Z,20.82
2023-05-19T11:58:15.868Z,20.83
2023-05-19T12:00:46.377Z,20.92
2023-05-19T12:03:15.226Z,20.93
2023-05-19T12:05:46.803Z,21.08
2023-05-19T12:08:18.589Z,21.08
2023-05-19T12:10:51.077Z,20.99
2023-05-19T12:13:21.050Z,20.95
2023-05-19T12:15:52.288Z,20.94
2023-05-19T12:18:21.471Z,20.96
2023-05-19T12:20:49.839Z,20.81
2023-05-19T12:23:18.116Z,20.66
2023-05-19T12:25:46.660Z,20.62
2023-05-19T12:28:16.598Z,20.46
2023-05-19T12:30:49.376Z,20.66
2023-05-19T12:33:19.625Z,20.78
2023-05-19T12:35:49.996Z,20.71
2023-05-19T12:38:19.877Z,20.68
2023-05-19T12:40:49.696Z,20.66
2023-05-19T12:43:22.913Z,20.54
2023-05-19T12:45:52.567Z,20.41
2023-05-19T12:48:24.291Z,20.87
2023-05-19T12:50:56.604Z,20.76
2023-05-19T12:53:27.280Z,20.67
2023-05-19T12:55:56.146Z,20.57
2023-05-19T12:58:24.675Z,20.48
2023-05-19T13:00:59.799Z,20.45
2023-05-19T13:03:28.523Z,20.31
2023-05-19T13:05:56.885Z,20.34
2023-05-19T13:08:25.058Z,20.42
2023-05-19T13:10:53.697Z,20.44
2023-05-19T13:13:22.129Z,20.39
2023-05-19T13:15:50.345Z,20.45
2023-05-19T13:18:18.744Z,20.45
2023-05-19T13:20:50.125Z,20.46
2023-05-19T13:23:19.337Z,20.66
2023-05-19T13:25:48.364Z,20.68
2023-05-19T13:28:16.514Z,20.89
2023-05-19T13:30:45.800Z,20.84
2023-05-19T13:33:14.528Z,20.82
2023-05-19T13:35:42.946Z,20.94
2023-05-19T13:38:11.727Z,20.80
2023-05-19T13:40:41.237Z,20.81
2023-05-19T13:43:09.796Z,20.89
2023-05-19T13:45:38.741Z,20.94
2023-05-19T13:48:07.818Z,21.01
2023-05-19T13:50:36.554Z,21.18
2023-05-19T13:53:05.245Z,21.02
2023-05-19T13:55:33.452Z,20.75
2023-05-19T13:58:01.666Z,20.86
2023-05-19T14:00:32.025Z,20.96
2023-05-19T14:03:00.919Z,20.76
2023-05-19T14:05:29.298Z,20.98
2023-05-19T14:07:58.101Z,21.07
2023-05-19T14:10:27.174Z,20.96
2023-05-19T14:15:38.206Z,21.06
2023-05-19T14:18:07.077Z,21.13
2023-05-19T14:20:36.173Z,21.12
2023-05-19T14:23:05.026Z,21.01
2023-05-19T14:25:33.119Z,20.90
2023-05-19T14:28:01.656Z,20.76
2023-05-19T14:30:30.197Z,20.90
2023-05-19T14:32:58.457Z,21.06
2023-05-19T14:35:27.293Z,21.10
2023-05-19T14:37:55.746Z,21.18
2023-05-19T14:40:23.987Z,21.15
2023-05-19T14:42:52.246Z,21.25
2023-05-19T14:45:20.699Z,21.24
2023-05-19T14:47:49.354Z,21.23
2023-05-19T14:50:17.620Z,21.21
2023-05-19T14:52:46.159Z,21.22
2023-05-19T14:55:14.299Z,21.21
2023-05-19T14:57:42.738Z,21.18
2023-05-19T15:00:12.153Z,21.14
2023-05-19T15:02:40.514Z,21.23
2023-05-19T15:05:09.218Z,21.14
2023-05-19T15:07:38.092Z,21.15
2023-05-19T15:10:07.761Z,21.25
2023-05-19T15:12:36.462Z,21.19
2023-05-19T15:15:05.228Z,21.12
2023-05-19T15:17:34.073Z,21.10
2023-05-19T15:20:02.688Z,21.07
2023-05-19T15:22:31.237Z,20.98
2023-05-19T15:24:59.462Z,21.04
2023-05-19T15:27:27.679Z,20.91
2023-05-19T15:29:56.253Z,20.87
2023-05-19T15:32:24.558Z,21.00
2023-05-19T15:34:52.738Z,20.91
2023-05-19T15:37:21.301Z,20.79
2023-05-19T15:39:49.544Z,20.74
2023-05-19T15:42:17.725Z,20.79
2023-05-19T15:44:46.361Z,20.65
2023-05-19T15:47:14.433Z,20.61
2023-05-19T15:49:42.559Z,20.60
2023-05-19T15:52:11.021Z,20.54
2023-05-19T15:54:40.924Z,20.54
2023-05-19T15:57:09.298Z,20.56
2023-05-19T15:59:37.815Z,20.55
2023-05-19T16:02:06.087Z,20.56
2023-05-19T16:04:34.539Z,20.70
2023-05-19T16:07:02.603Z,20.57
2023-05-19T16:09:30.768Z,20.48
2023-05-19T16:11:59.159Z,20.53
2023-05-19T16:14:31.137Z,20.46
2023-05-19T16:17:00.871Z,20.45
2023-05-19T16:19:30.624Z,20.43
2023-05-19T16:22:00.772Z,20.36
2023-05-19T16:24:29.920Z,20.34
2023-05-19T16:26:59.248Z,20.36
2023-05-19T16:29:27.675Z,20.29
2023-05-19T16:31:55.995Z,20.23
2023-05-19T16:34:27.487Z,20.16
2023-05-19T16:36:57.527Z,20.18
2023-05-19T16:39:26.124Z,20.18
2023-05-19T16:41:54.213Z,20.13
2023-05-19T16:44:24.656Z,20.09
2023-05-19T16:46:52.755Z,20.02
2023-05-19T16:49:21.179Z,20.00
2023-05-19T16:51:49.830Z,19.99
2023-05-19T16:54:18.106Z,20.02
2023-05-19T16:56:46.460Z,19.93
2023-05-19T16:59:14.964Z,19.86
2023-05-19T17:01:43.738Z,19.87
2023-05-19T17:04:11.900Z,19.77
2023-05-19T17:06:40.401Z,19.65
2023-05-19T17:09:08.598Z,19.62
2023-05-19T17:11:36.743Z,19.64
2023-05-19T17:14:08.162Z,19.68
2023-05-19T17:16:36.870Z,19.59
2023-05-19T17:19:05.305Z,19.43
2023-05-19T17:21:33.736Z,19.30
2023-05-19T17:24:01.746Z,19.14
2023-05-19T17:26:31.006Z,18.97
2023-05-19T17:28:59.147Z,18.82
2023-05-19T17:31:27.588Z,18.68
2023-05-19T17:33:56.236Z,18.60
2023-05-19T17:36:24.544Z,18.48
2023-05-19T17:38:52.753Z,18.38
2023-05-19T17:41:21.909Z,18.30
2023-05-19T17:43:50.092Z,18.27
2023-05-19T17:46:18.297Z,18.16
2023-05-19T17:48:46.908Z,18.05
2023-05-19T17:51:15.115Z,17.95
2023-05-19T17:53:43.530Z,17.90
2023-05-19T17:56:12.842Z,17.92
2023-05-19T17:58:41.547Z,17.86
2023-05-19T18:01:10.005Z,17.80
2023-05-19T18:03:38.994Z,17.79
2023-05-19T18:06:08.031Z,17.60
2023-05-19T18:08:38.623Z,17.49
2023-05-19T18:11:10.231Z,17.57
2023-05-19T18:13:39.255Z,17.61
2023-05-19T18:16:07.859Z,17.53
2023-05-19T18:18:37.607Z,17.48
2023-05-19T18:21:06.641Z,17.48
2023-05-19T18:23:35.080Z,17.49
2023-05-19T18:26:03.420Z,17.34
2023-05-19T18:28:31.573Z,17.23
2023-05-19T18:31:01.244Z,16.89
2023-05-19T18:33:30.932Z,16.74
2023-05-19T18:35:59.862Z,16.67
2023-05-19T18:38:28.045Z,16.71
2023-05-19T18:40:56.871Z,16.58
2023-05-19T18:43:25.371Z,16.53
2023-05-19T18:45:53.498Z,16.56
2023-05-19T18:48:22.756Z,16.58
2023-05-19T18:50:51.794Z,16.57
2023-05-19T18:53:21.859Z,16.54
2023-05-19T18:55:50.233Z,16.46
2023-05-19T18:58:18.932Z,16.34
2023-05-19T19:00:47.234Z,16.25
2023-05-19T19:03:16.035Z,16.03
2023-05-19T19:05:46.143Z,16.00
2023-05-19T19:08:14.253Z,15.98
2023-05-19T19:10:42.905Z,16.03
2023-05-19T19:13:11.429Z,15.98
2023-05-19T19:15:39.818Z,15.91
2023-05-19T19:18:08.486Z,15.88
2023-05-19T19:20:37.024Z,15.88
2023-05-19T19:23:06.756Z,15.88
2023-05-19T19:25:35.506Z,15.84
2023-05-19T19:28:04.076Z,15.67
2023-05-19T19:30:32.471Z,15.62
2023-05-19T19:33:01.314Z,15.57
2023-05-19T19:35:29.952Z,15.51
2023-05-19T19:37:58.698Z,15.38
2023-05-19T19:40:27.232Z,15.26
2023-05-19T19:42:55.698Z,15.24
2023-05-19T19:45:24.120Z,15.26
2023-05-19T19:47:52.746Z,15.34
2023-05-19T19:50:21.448Z,15.17
2023-05-19T19:52:49.623Z,15.18
2023-05-19T19:55:17.829Z,15.18
2023-05-19T19:57:49.126Z,15.12
2023-05-19T20:00:18.321Z,15.10
2023-05-19T20:05:20.299Z,15.10
2023-05-19T20:07:48.790Z,15.06
2023-05-19T20:10:17.048Z,15.04
2023-05-19T20:12:47.527Z,14.98
2023-05-19T20:15:16.427Z,14.94
2023-05-19T20:17:44.585Z,14.97
2023-05-19T20:20:13.185Z,15.03
2023-05-19T20:22:41.851Z,14.97
2023-05-19T20:25:10.008Z,14.94
2023-05-19T20:27:38.172Z,14.95
2023-05-19T20:30:07.662Z,15.02
2023-05-19T20:32:36.024Z,15.04
2023-05-19T20:35:04.455Z,15.03
2023-05-19T20:37:32.993Z,15.02
2023-05-19T20:40:01.339Z,15.04
2023-05-19T20:42:29.629Z,15.03
2023-05-19T20:44:58.961Z,15.01
2023-05-19T20:47:30.269Z,15.00
2023-05-19T20:49:59.366Z,15.00
2023-05-19T20:52:27.485Z,14.95
2023-05-19T20:54:55.731Z,14.87
2023-05-19T20:57:24.748Z,14.91
2023-05-19T20:59:53.702Z,14.98
2023-05-19T21:02:21.868Z,15.00
2023-05-19T21:04:50.961Z,14.93
2023-05-19T21:07:19.086Z,14.93
2023-05-19T21:09:50.271Z,14.94
2023-05-19T21:12:21.246Z,14.91
2023-05-19T21:14:50.054Z,14.91
2023-05-19T21:17:19.114Z,14.93
2023-05-19T21:19:49.180Z,14.95
2023-05-19T21:22:18.976Z,14.92
2023-05-19T21:24:47.276Z,14.90
2023-05-19T21:27:15.996Z,14.81
2023-05-19T21:29:44.395Z,14.78
2023-05-19T21:32:12.574Z,14.66
2023-05-19T21:34:40.904Z,14.61
2023-05-19T21:37:09.298Z,14.62
2023-05-19T21:39:37.410Z,14.69
2023-05-19T21:42:06.529Z,14.74
2023-05-19T21:44:34.817Z,14.81
2023-05-19T21:47:02.947Z,14.78
2023-05-19T21:49:31.732Z,14.74
2023-05-19T21:52:00.324Z,14.70
2023-05-19T21:54:28.417Z,14.60
2023-05-19T21:56:56.722Z,14.52
2023-05-19T21:59:26.316Z,14.53
2023-05-19T22:01:54.734Z,14.57
2023-05-19T22:04:23.313Z,14.52
2023-05-19T22:06:51.549Z,14.49
2023-05-19T22:09:19.774Z,14.44
2023-05-19T22:11:48.305Z,14.42
2023-05-19T22:14:16.807Z,14.39
2023-05-19T22:16:45.024Z,14.37
2023-05-19T22:19:14.774Z,14.35
2023-05-19T22:21:42.946Z,14.32
2023-05-19T22:24:11.119Z,14.31
2023-05-19T22:26:42.941Z,14.27
2023-05-19T22:29:15.192Z,14.24
2023-05-19T22:31:43.773Z,14.15
2023-05-19T22:34:15.478Z,14.13
2023-05-19T22:36:46.108Z,14.06
2023-05-19T22:39:14.458Z,14.09
2023-05-19T22:41:42.558Z,14.10
2023-05-19T22:44:13.204Z,14.07
2023-05-19T22:46:41.938Z,14.05
2023-05-19T22:49:10.792Z,14.03
2023-05-19T22:51:40.085Z,13.99
2023-05-19T22:54:08.270Z,13.98
2023-05-19T22:56:36.709Z,13.97
2023-05-19T22:59:04.923Z,13.94
2023-05-19T23:01:33.097Z,13.92
2023-05-19T23:04:01.671Z,13.93
2023-05-19T23:06:31.488Z,13.91
2023-05-19T23:09:02.068Z,13.97
2023-05-19T23:11:30.900Z,13.95
2023-05-19T23:13:59.198Z,13.90
2023-05-19T23:16:27.371Z,13.89
2023-05-19T23:18:55.938Z,13.87
2023-05-19T23:21:24.211Z,13.78
2023-05-19T23:23:52.466Z,13.81
2023-05-19T23:26:21.392Z,13.79
2023-05-19T23:28:49.942Z,13.78
2023-05-19T23:31:18.244Z,13.76
2023-05-19T23:33:46.722Z,13.72
2023-05-19T23:36:16.929Z,13.78
2023-05-19T23:38:45.541Z,13.74
2023-05-19T23:41:13.998Z,13.72
2023-05-19T23:43:42.216Z,13.73
2023-05-19T23:46:10.720Z,13.70
2023-05-19T23:48:39.442Z,13.66
2023-05-19T23:51:07.950Z,13.61
2023-05-19T23:53:36.681Z,13.64
2023-05-19T23:56:05.260Z,13.58
2023-05-19T23:58:33.528Z,13.53
